<?xml version="1.0" encoding="UTF-8" standalone="no" ?>
<gpx xmlns="http://www.topografix.com/GPX/1/1" xmlns:xsi="http://www.w3.org/2001/XMLSchema-instance" xsi:schemaLocation="http://www.topografix.com/GPX/1/1 http://www.topografix.com/GPX/1/1/gpx.xsd" version="1.1" creator="VisuGPX - https://www.visugpx.com">
  <metadata>
    <name>14221613-Nébian</name>
  </metadata>
  <trk>
    <name><![CDATA[14221613-Nébian]]></name>
    <trkseg>
      <trkpt lat="43.60473" lon="3.4358">
        <ele>103</ele>
        <time>2022-02-04T18:18:47Z</time>
      </trkpt>
      <trkpt lat="43.60492" lon="3.43552">
        <ele>104</ele>
        <time>2022-02-04T18:19:24Z</time>
      </trkpt>
      <trkpt lat="43.60502" lon="3.43546">
        <ele>105</ele>
        <time>2022-02-04T18:19:39Z</time>
      </trkpt>
      <trkpt lat="43.60507" lon="3.43546">
        <ele>105</ele>
        <time>2022-02-04T18:19:45Z</time>
      </trkpt>
      <trkpt lat="43.6054" lon="3.4357">
        <ele>106</ele>
        <time>2022-02-04T18:20:35Z</time>
      </trkpt>
      <trkpt lat="43.60593" lon="3.43601">
        <ele>109</ele>
        <time>2022-02-04T18:21:52Z</time>
      </trkpt>
      <trkpt lat="43.60597" lon="3.43601">
        <ele>109</ele>
        <time>2022-02-04T18:21:57Z</time>
      </trkpt>
      <trkpt lat="43.60605" lon="3.43589">
        <ele>109</ele>
        <time>2022-02-04T18:22:13Z</time>
      </trkpt>
      <trkpt lat="43.6061" lon="3.43542">
        <ele>110</ele>
        <time>2022-02-04T18:22:59Z</time>
      </trkpt>
      <trkpt lat="43.60615" lon="3.43366">
        <ele>115</ele>
        <time>2022-02-04T18:25:49Z</time>
      </trkpt>
      <trkpt lat="43.60622" lon="3.43292">
        <ele>118</ele>
        <time>2022-02-04T18:27:01Z</time>
      </trkpt>
      <trkpt lat="43.60623" lon="3.43173">
        <ele>123</ele>
        <time>2022-02-04T18:28:56Z</time>
      </trkpt>
      <trkpt lat="43.60615" lon="3.43159">
        <ele>123</ele>
        <time>2022-02-04T18:29:13Z</time>
      </trkpt>
      <trkpt lat="43.60607" lon="3.43153">
        <ele>122</ele>
        <time>2022-02-04T18:29:26Z</time>
      </trkpt>
      <trkpt lat="43.60596" lon="3.43134">
        <ele>122</ele>
        <time>2022-02-04T18:29:49Z</time>
      </trkpt>
      <trkpt lat="43.60594" lon="3.43123">
        <ele>122</ele>
        <time>2022-02-04T18:30:00Z</time>
      </trkpt>
      <trkpt lat="43.606" lon="3.43103">
        <ele>123</ele>
        <time>2022-02-04T18:30:21Z</time>
      </trkpt>
      <trkpt lat="43.60606" lon="3.4306">
        <ele>126</ele>
        <time>2022-02-04T18:31:03Z</time>
      </trkpt>
      <trkpt lat="43.60616" lon="3.43032">
        <ele>128</ele>
        <time>2022-02-04T18:31:33Z</time>
      </trkpt>
      <trkpt lat="43.60625" lon="3.43018">
        <ele>130</ele>
        <time>2022-02-04T18:31:52Z</time>
      </trkpt>
      <trkpt lat="43.60635" lon="3.43012">
        <ele>130</ele>
        <time>2022-02-04T18:32:06Z</time>
      </trkpt>
      <trkpt lat="43.60651" lon="3.43009">
        <ele>131</ele>
        <time>2022-02-04T18:32:28Z</time>
      </trkpt>
      <trkpt lat="43.60655" lon="3.43006">
        <ele>131</ele>
        <time>2022-02-04T18:32:34Z</time>
      </trkpt>
      <trkpt lat="43.60656" lon="3.43001">
        <ele>132</ele>
        <time>2022-02-04T18:32:39Z</time>
      </trkpt>
      <trkpt lat="43.60643" lon="3.42977">
        <ele>133</ele>
        <time>2022-02-04T18:33:08Z</time>
      </trkpt>
      <trkpt lat="43.6063" lon="3.42959">
        <ele>134</ele>
        <time>2022-02-04T18:33:32Z</time>
      </trkpt>
      <trkpt lat="43.60625" lon="3.42942">
        <ele>135</ele>
        <time>2022-02-04T18:33:50Z</time>
      </trkpt>
      <trkpt lat="43.60615" lon="3.42925">
        <ele>136</ele>
        <time>2022-02-04T18:34:11Z</time>
      </trkpt>
      <trkpt lat="43.60614" lon="3.42916">
        <ele>136</ele>
        <time>2022-02-04T18:34:20Z</time>
      </trkpt>
      <trkpt lat="43.6064" lon="3.4289">
        <ele>139</ele>
        <time>2022-02-04T18:35:03Z</time>
      </trkpt>
      <trkpt lat="43.60645" lon="3.42882">
        <ele>140</ele>
        <time>2022-02-04T18:35:13Z</time>
      </trkpt>
      <trkpt lat="43.60654" lon="3.42875">
        <ele>140</ele>
        <time>2022-02-04T18:35:27Z</time>
      </trkpt>
      <trkpt lat="43.60671" lon="3.42866">
        <ele>141</ele>
        <time>2022-02-04T18:35:51Z</time>
      </trkpt>
      <trkpt lat="43.60681" lon="3.42868">
        <ele>141</ele>
        <time>2022-02-04T18:36:05Z</time>
      </trkpt>
      <trkpt lat="43.6071" lon="3.42864">
        <ele>142</ele>
        <time>2022-02-04T18:36:43Z</time>
      </trkpt>
      <trkpt lat="43.60733" lon="3.42851">
        <ele>143</ele>
        <time>2022-02-04T18:37:17Z</time>
      </trkpt>
      <trkpt lat="43.60757" lon="3.42829">
        <ele>144</ele>
        <time>2022-02-04T18:37:55Z</time>
      </trkpt>
      <trkpt lat="43.60773" lon="3.42812">
        <ele>146</ele>
        <time>2022-02-04T18:38:22Z</time>
      </trkpt>
      <trkpt lat="43.6079" lon="3.42781">
        <ele>148</ele>
        <time>2022-02-04T18:39:00Z</time>
      </trkpt>
      <trkpt lat="43.60817" lon="3.42755">
        <ele>148</ele>
        <time>2022-02-04T18:39:43Z</time>
      </trkpt>
      <trkpt lat="43.60843" lon="3.4271">
        <ele>149</ele>
        <time>2022-02-04T18:40:39Z</time>
      </trkpt>
      <trkpt lat="43.6086" lon="3.42645">
        <ele>151</ele>
        <time>2022-02-04T18:41:46Z</time>
      </trkpt>
      <trkpt lat="43.6087" lon="3.42614">
        <ele>151</ele>
        <time>2022-02-04T18:42:19Z</time>
      </trkpt>
      <trkpt lat="43.60874" lon="3.42609">
        <ele>151</ele>
        <time>2022-02-04T18:42:26Z</time>
      </trkpt>
      <trkpt lat="43.60887" lon="3.42603">
        <ele>151</ele>
        <time>2022-02-04T18:42:44Z</time>
      </trkpt>
      <trkpt lat="43.6092" lon="3.42602">
        <ele>149</ele>
        <time>2022-02-04T18:43:28Z</time>
      </trkpt>
      <trkpt lat="43.60935" lon="3.42595">
        <ele>151</ele>
        <time>2022-02-04T18:43:49Z</time>
      </trkpt>
      <trkpt lat="43.61001" lon="3.42524">
        <ele>156</ele>
        <time>2022-02-04T18:45:41Z</time>
      </trkpt>
      <trkpt lat="43.61041" lon="3.42495">
        <ele>158</ele>
        <time>2022-02-04T18:46:41Z</time>
      </trkpt>
      <trkpt lat="43.61056" lon="3.42479">
        <ele>160</ele>
        <time>2022-02-04T18:47:07Z</time>
      </trkpt>
      <trkpt lat="43.61074" lon="3.42442">
        <ele>161</ele>
        <time>2022-02-04T18:47:50Z</time>
      </trkpt>
      <trkpt lat="43.61088" lon="3.42404">
        <ele>163</ele>
        <time>2022-02-04T18:48:31Z</time>
      </trkpt>
      <trkpt lat="43.61114" lon="3.42346">
        <ele>172</ele>
        <time>2022-02-04T18:49:37Z</time>
      </trkpt>
      <trkpt lat="43.61143" lon="3.42258">
        <ele>178</ele>
        <time>2022-02-04T18:51:10Z</time>
      </trkpt>
      <trkpt lat="43.61181" lon="3.42185">
        <ele>185</ele>
        <time>2022-02-04T18:52:37Z</time>
      </trkpt>
      <trkpt lat="43.61219" lon="3.42015">
        <ele>202</ele>
        <time>2022-02-04T18:55:29Z</time>
      </trkpt>
      <trkpt lat="43.61219" lon="3.41993">
        <ele>203</ele>
        <time>2022-02-04T18:55:50Z</time>
      </trkpt>
      <trkpt lat="43.61216" lon="3.41978">
        <ele>204</ele>
        <time>2022-02-04T18:56:05Z</time>
      </trkpt>
      <trkpt lat="43.61221" lon="3.41972">
        <ele>205</ele>
        <time>2022-02-04T18:56:14Z</time>
      </trkpt>
      <trkpt lat="43.61226" lon="3.41946">
        <ele>207</ele>
        <time>2022-02-04T18:56:40Z</time>
      </trkpt>
      <trkpt lat="43.61232" lon="3.41944">
        <ele>208</ele>
        <time>2022-02-04T18:56:48Z</time>
      </trkpt>
      <trkpt lat="43.61256" lon="3.41944">
        <ele>212</ele>
        <time>2022-02-04T18:57:20Z</time>
      </trkpt>
      <trkpt lat="43.61261" lon="3.41956">
        <ele>213</ele>
        <time>2022-02-04T18:57:34Z</time>
      </trkpt>
      <trkpt lat="43.61266" lon="3.41994">
        <ele>210</ele>
        <time>2022-02-04T18:58:11Z</time>
      </trkpt>
      <trkpt lat="43.61273" lon="3.42013">
        <ele>211</ele>
        <time>2022-02-04T18:58:32Z</time>
      </trkpt>
      <trkpt lat="43.61276" lon="3.42015">
        <ele>212</ele>
        <time>2022-02-04T18:58:36Z</time>
      </trkpt>
      <trkpt lat="43.61279" lon="3.42013">
        <ele>213</ele>
        <time>2022-02-04T18:58:40Z</time>
      </trkpt>
      <trkpt lat="43.6128" lon="3.42003">
        <ele>213</ele>
        <time>2022-02-04T18:58:50Z</time>
      </trkpt>
      <trkpt lat="43.61276" lon="3.41984">
        <ele>214</ele>
        <time>2022-02-04T18:59:09Z</time>
      </trkpt>
      <trkpt lat="43.61277" lon="3.41979">
        <ele>215</ele>
        <time>2022-02-04T18:59:14Z</time>
      </trkpt>
      <trkpt lat="43.6128" lon="3.41977">
        <ele>216</ele>
        <time>2022-02-04T18:59:19Z</time>
      </trkpt>
      <trkpt lat="43.61293" lon="3.41995">
        <ele>218</ele>
        <time>2022-02-04T18:59:43Z</time>
      </trkpt>
      <trkpt lat="43.61306" lon="3.42008">
        <ele>221</ele>
        <time>2022-02-04T19:00:05Z</time>
      </trkpt>
      <trkpt lat="43.61318" lon="3.42035">
        <ele>223</ele>
        <time>2022-02-04T19:00:35Z</time>
      </trkpt>
      <trkpt lat="43.61318" lon="3.42052">
        <ele>223</ele>
        <time>2022-02-04T19:00:52Z</time>
      </trkpt>
      <trkpt lat="43.61312" lon="3.42076">
        <ele>220</ele>
        <time>2022-02-04T19:01:16Z</time>
      </trkpt>
      <trkpt lat="43.61311" lon="3.4209">
        <ele>220</ele>
        <time>2022-02-04T19:01:30Z</time>
      </trkpt>
      <trkpt lat="43.61313" lon="3.42167">
        <ele>223</ele>
        <time>2022-02-04T19:02:44Z</time>
      </trkpt>
      <trkpt lat="43.61309" lon="3.42188">
        <ele>223</ele>
        <time>2022-02-04T19:03:05Z</time>
      </trkpt>
      <trkpt lat="43.61287" lon="3.4226">
        <ele>218</ele>
        <time>2022-02-04T19:04:21Z</time>
      </trkpt>
      <trkpt lat="43.61273" lon="3.42325">
        <ele>213</ele>
        <time>2022-02-04T19:05:26Z</time>
      </trkpt>
      <trkpt lat="43.61273" lon="3.42344">
        <ele>212</ele>
        <time>2022-02-04T19:05:45Z</time>
      </trkpt>
      <trkpt lat="43.61279" lon="3.42371">
        <ele>212</ele>
        <time>2022-02-04T19:06:12Z</time>
      </trkpt>
      <trkpt lat="43.61281" lon="3.42393">
        <ele>211</ele>
        <time>2022-02-04T19:06:33Z</time>
      </trkpt>
      <trkpt lat="43.61283" lon="3.42395">
        <ele>211</ele>
        <time>2022-02-04T19:06:37Z</time>
      </trkpt>
      <trkpt lat="43.61286" lon="3.42394">
        <ele>212</ele>
        <time>2022-02-04T19:06:41Z</time>
      </trkpt>
      <trkpt lat="43.61289" lon="3.42388">
        <ele>214</ele>
        <time>2022-02-04T19:06:48Z</time>
      </trkpt>
      <trkpt lat="43.613" lon="3.42382">
        <ele>217</ele>
        <time>2022-02-04T19:07:04Z</time>
      </trkpt>
      <trkpt lat="43.61306" lon="3.42383">
        <ele>219</ele>
        <time>2022-02-04T19:07:12Z</time>
      </trkpt>
      <trkpt lat="43.61313" lon="3.42376">
        <ele>222</ele>
        <time>2022-02-04T19:07:23Z</time>
      </trkpt>
      <trkpt lat="43.61328" lon="3.42373">
        <ele>227</ele>
        <time>2022-02-04T19:07:44Z</time>
      </trkpt>
      <trkpt lat="43.61333" lon="3.42363">
        <ele>229</ele>
        <time>2022-02-04T19:07:55Z</time>
      </trkpt>
      <trkpt lat="43.61338" lon="3.42361">
        <ele>231</ele>
        <time>2022-02-04T19:08:02Z</time>
      </trkpt>
      <trkpt lat="43.6134" lon="3.42351">
        <ele>233</ele>
        <time>2022-02-04T19:08:12Z</time>
      </trkpt>
      <trkpt lat="43.61357" lon="3.42333">
        <ele>239</ele>
        <time>2022-02-04T19:08:41Z</time>
      </trkpt>
      <trkpt lat="43.61365" lon="3.42313">
        <ele>242</ele>
        <time>2022-02-04T19:09:03Z</time>
      </trkpt>
      <trkpt lat="43.61368" lon="3.42311">
        <ele>242</ele>
        <time>2022-02-04T19:09:07Z</time>
      </trkpt>
      <trkpt lat="43.61382" lon="3.42311">
        <ele>246</ele>
        <time>2022-02-04T19:09:26Z</time>
      </trkpt>
      <trkpt lat="43.61391" lon="3.42308">
        <ele>248</ele>
        <time>2022-02-04T19:09:38Z</time>
      </trkpt>
      <trkpt lat="43.61402" lon="3.42327">
        <ele>250</ele>
        <time>2022-02-04T19:10:02Z</time>
      </trkpt>
      <trkpt lat="43.61407" lon="3.4233">
        <ele>251</ele>
        <time>2022-02-04T19:10:09Z</time>
      </trkpt>
      <trkpt lat="43.61422" lon="3.4233">
        <ele>254</ele>
        <time>2022-02-04T19:10:29Z</time>
      </trkpt>
      <trkpt lat="43.61435" lon="3.42321">
        <ele>256</ele>
        <time>2022-02-04T19:10:49Z</time>
      </trkpt>
      <trkpt lat="43.61444" lon="3.42324">
        <ele>257</ele>
        <time>2022-02-04T19:11:01Z</time>
      </trkpt>
      <trkpt lat="43.6145" lon="3.42322">
        <ele>258</ele>
        <time>2022-02-04T19:11:09Z</time>
      </trkpt>
      <trkpt lat="43.61472" lon="3.42305">
        <ele>262</ele>
        <time>2022-02-04T19:11:43Z</time>
      </trkpt>
      <trkpt lat="43.61481" lon="3.42309">
        <ele>263</ele>
        <time>2022-02-04T19:11:55Z</time>
      </trkpt>
      <trkpt lat="43.61488" lon="3.42319">
        <ele>263</ele>
        <time>2022-02-04T19:12:09Z</time>
      </trkpt>
      <trkpt lat="43.61489" lon="3.4233">
        <ele>262</ele>
        <time>2022-02-04T19:12:20Z</time>
      </trkpt>
      <trkpt lat="43.61482" lon="3.42372">
        <ele>258</ele>
        <time>2022-02-04T19:13:01Z</time>
      </trkpt>
      <trkpt lat="43.61466" lon="3.4244">
        <ele>250</ele>
        <time>2022-02-04T19:14:10Z</time>
      </trkpt>
      <trkpt lat="43.6146" lon="3.42486">
        <ele>246</ele>
        <time>2022-02-04T19:14:55Z</time>
      </trkpt>
      <trkpt lat="43.61456" lon="3.42576">
        <ele>238</ele>
        <time>2022-02-04T19:16:23Z</time>
      </trkpt>
      <trkpt lat="43.61461" lon="3.42607">
        <ele>235</ele>
        <time>2022-02-04T19:16:53Z</time>
      </trkpt>
      <trkpt lat="43.61465" lon="3.42616">
        <ele>235</ele>
        <time>2022-02-04T19:17:03Z</time>
      </trkpt>
      <trkpt lat="43.61479" lon="3.42631">
        <ele>234</ele>
        <time>2022-02-04T19:17:27Z</time>
      </trkpt>
      <trkpt lat="43.615" lon="3.42639">
        <ele>235</ele>
        <time>2022-02-04T19:17:56Z</time>
      </trkpt>
      <trkpt lat="43.61514" lon="3.42636">
        <ele>235</ele>
        <time>2022-02-04T19:18:15Z</time>
      </trkpt>
      <trkpt lat="43.6154" lon="3.42614">
        <ele>236</ele>
        <time>2022-02-04T19:18:56Z</time>
      </trkpt>
      <trkpt lat="43.6155" lon="3.42594">
        <ele>238</ele>
        <time>2022-02-04T19:19:19Z</time>
      </trkpt>
      <trkpt lat="43.61568" lon="3.4254">
        <ele>242</ele>
        <time>2022-02-04T19:20:17Z</time>
      </trkpt>
      <trkpt lat="43.61574" lon="3.42531">
        <ele>242</ele>
        <time>2022-02-04T19:20:29Z</time>
      </trkpt>
      <trkpt lat="43.61581" lon="3.42527">
        <ele>241</ele>
        <time>2022-02-04T19:20:39Z</time>
      </trkpt>
      <trkpt lat="43.61589" lon="3.42529">
        <ele>241</ele>
        <time>2022-02-04T19:20:49Z</time>
      </trkpt>
      <trkpt lat="43.61601" lon="3.42546">
        <ele>240</ele>
        <time>2022-02-04T19:21:12Z</time>
      </trkpt>
      <trkpt lat="43.61632" lon="3.42625">
        <ele>233</ele>
        <time>2022-02-04T19:22:39Z</time>
      </trkpt>
      <trkpt lat="43.61642" lon="3.42637">
        <ele>232</ele>
        <time>2022-02-04T19:22:57Z</time>
      </trkpt>
      <trkpt lat="43.61652" lon="3.42643">
        <ele>232</ele>
        <time>2022-02-04T19:23:11Z</time>
      </trkpt>
      <trkpt lat="43.61668" lon="3.4264">
        <ele>232</ele>
        <time>2022-02-04T19:23:33Z</time>
      </trkpt>
      <trkpt lat="43.61687" lon="3.42627">
        <ele>234</ele>
        <time>2022-02-04T19:24:01Z</time>
      </trkpt>
      <trkpt lat="43.61715" lon="3.42599">
        <ele>236</ele>
        <time>2022-02-04T19:24:47Z</time>
      </trkpt>
      <trkpt lat="43.61731" lon="3.42569">
        <ele>238</ele>
        <time>2022-02-04T19:25:23Z</time>
      </trkpt>
      <trkpt lat="43.61739" lon="3.42565">
        <ele>238</ele>
        <time>2022-02-04T19:25:35Z</time>
      </trkpt>
      <trkpt lat="43.61745" lon="3.4257">
        <ele>237</ele>
        <time>2022-02-04T19:25:44Z</time>
      </trkpt>
      <trkpt lat="43.61749" lon="3.42602">
        <ele>235</ele>
        <time>2022-02-04T19:26:16Z</time>
      </trkpt>
      <trkpt lat="43.6175" lon="3.42665">
        <ele>231</ele>
        <time>2022-02-04T19:27:16Z</time>
      </trkpt>
      <trkpt lat="43.61744" lon="3.42712">
        <ele>228</ele>
        <time>2022-02-04T19:28:03Z</time>
      </trkpt>
      <trkpt lat="43.61746" lon="3.4274">
        <ele>227</ele>
        <time>2022-02-04T19:28:30Z</time>
      </trkpt>
      <trkpt lat="43.61755" lon="3.42761">
        <ele>225</ele>
        <time>2022-02-04T19:28:53Z</time>
      </trkpt>
      <trkpt lat="43.61763" lon="3.42766">
        <ele>223</ele>
        <time>2022-02-04T19:29:05Z</time>
      </trkpt>
      <trkpt lat="43.61773" lon="3.42764">
        <ele>222</ele>
        <time>2022-02-04T19:29:18Z</time>
      </trkpt>
      <trkpt lat="43.61803" lon="3.42742">
        <ele>223</ele>
        <time>2022-02-04T19:30:04Z</time>
      </trkpt>
      <trkpt lat="43.61813" lon="3.4273">
        <ele>224</ele>
        <time>2022-02-04T19:30:21Z</time>
      </trkpt>
      <trkpt lat="43.61827" lon="3.42707">
        <ele>226</ele>
        <time>2022-02-04T19:30:51Z</time>
      </trkpt>
      <trkpt lat="43.6187" lon="3.42623">
        <ele>227</ele>
        <time>2022-02-04T19:32:30Z</time>
      </trkpt>
      <trkpt lat="43.61884" lon="3.42603">
        <ele>226</ele>
        <time>2022-02-04T19:32:57Z</time>
      </trkpt>
      <trkpt lat="43.6193" lon="3.42521">
        <ele>231</ele>
        <time>2022-02-04T19:34:37Z</time>
      </trkpt>
      <trkpt lat="43.62016" lon="3.42404">
        <ele>232</ele>
        <time>2022-02-04T19:37:18Z</time>
      </trkpt>
      <trkpt lat="43.62026" lon="3.42394">
        <ele>233</ele>
        <time>2022-02-04T19:37:35Z</time>
      </trkpt>
      <trkpt lat="43.62034" lon="3.42393">
        <ele>233</ele>
        <time>2022-02-04T19:37:45Z</time>
      </trkpt>
      <trkpt lat="43.62038" lon="3.42394">
        <ele>233</ele>
        <time>2022-02-04T19:37:51Z</time>
      </trkpt>
      <trkpt lat="43.62048" lon="3.42406">
        <ele>232</ele>
        <time>2022-02-04T19:38:08Z</time>
      </trkpt>
      <trkpt lat="43.62056" lon="3.42469">
        <ele>228</ele>
        <time>2022-02-04T19:39:10Z</time>
      </trkpt>
      <trkpt lat="43.62086" lon="3.42545">
        <ele>227</ele>
        <time>2022-02-04T19:40:34Z</time>
      </trkpt>
      <trkpt lat="43.62093" lon="3.42571">
        <ele>227</ele>
        <time>2022-02-04T19:41:01Z</time>
      </trkpt>
      <trkpt lat="43.62096" lon="3.42596">
        <ele>227</ele>
        <time>2022-02-04T19:41:25Z</time>
      </trkpt>
      <trkpt lat="43.62093" lon="3.42627">
        <ele>225</ele>
        <time>2022-02-04T19:41:55Z</time>
      </trkpt>
      <trkpt lat="43.62088" lon="3.42649">
        <ele>224</ele>
        <time>2022-02-04T19:42:18Z</time>
      </trkpt>
      <trkpt lat="43.62069" lon="3.42723">
        <ele>218</ele>
        <time>2022-02-04T19:43:33Z</time>
      </trkpt>
      <trkpt lat="43.62055" lon="3.42766">
        <ele>212</ele>
        <time>2022-02-04T19:44:19Z</time>
      </trkpt>
      <trkpt lat="43.62052" lon="3.42783">
        <ele>211</ele>
        <time>2022-02-04T19:44:36Z</time>
      </trkpt>
      <trkpt lat="43.62054" lon="3.42817">
        <ele>210</ele>
        <time>2022-02-04T19:45:09Z</time>
      </trkpt>
      <trkpt lat="43.62058" lon="3.42831">
        <ele>210</ele>
        <time>2022-02-04T19:45:23Z</time>
      </trkpt>
      <trkpt lat="43.62071" lon="3.42853">
        <ele>212</ele>
        <time>2022-02-04T19:45:51Z</time>
      </trkpt>
      <trkpt lat="43.62085" lon="3.42861">
        <ele>213</ele>
        <time>2022-02-04T19:46:11Z</time>
      </trkpt>
      <trkpt lat="43.621" lon="3.42863">
        <ele>213</ele>
        <time>2022-02-04T19:46:31Z</time>
      </trkpt>
      <trkpt lat="43.62125" lon="3.4286">
        <ele>214</ele>
        <time>2022-02-04T19:47:05Z</time>
      </trkpt>
      <trkpt lat="43.62181" lon="3.42848">
        <ele>218</ele>
        <time>2022-02-04T19:48:20Z</time>
      </trkpt>
      <trkpt lat="43.62201" lon="3.42851">
        <ele>220</ele>
        <time>2022-02-04T19:48:47Z</time>
      </trkpt>
      <trkpt lat="43.62215" lon="3.42861">
        <ele>220</ele>
        <time>2022-02-04T19:49:08Z</time>
      </trkpt>
      <trkpt lat="43.62226" lon="3.42876">
        <ele>219</ele>
        <time>2022-02-04T19:49:29Z</time>
      </trkpt>
      <trkpt lat="43.62246" lon="3.42915">
        <ele>216</ele>
        <time>2022-02-04T19:50:15Z</time>
      </trkpt>
      <trkpt lat="43.62258" lon="3.42928">
        <ele>214</ele>
        <time>2022-02-04T19:50:35Z</time>
      </trkpt>
      <trkpt lat="43.62284" lon="3.42944">
        <ele>212</ele>
        <time>2022-02-04T19:51:13Z</time>
      </trkpt>
      <trkpt lat="43.62303" lon="3.42948">
        <ele>211</ele>
        <time>2022-02-04T19:51:39Z</time>
      </trkpt>
      <trkpt lat="43.62321" lon="3.42937">
        <ele>212</ele>
        <time>2022-02-04T19:52:05Z</time>
      </trkpt>
      <trkpt lat="43.62355" lon="3.42902">
        <ele>211</ele>
        <time>2022-02-04T19:53:02Z</time>
      </trkpt>
      <trkpt lat="43.6236" lon="3.42894">
        <ele>210</ele>
        <time>2022-02-04T19:53:12Z</time>
      </trkpt>
      <trkpt lat="43.62368" lon="3.42876">
        <ele>210</ele>
        <time>2022-02-04T19:53:32Z</time>
      </trkpt>
      <trkpt lat="43.62385" lon="3.42819">
        <ele>214</ele>
        <time>2022-02-04T19:54:32Z</time>
      </trkpt>
      <trkpt lat="43.62424" lon="3.42719">
        <ele>213</ele>
        <time>2022-02-04T19:56:22Z</time>
      </trkpt>
      <trkpt lat="43.62427" lon="3.42716">
        <ele>212</ele>
        <time>2022-02-04T19:56:27Z</time>
      </trkpt>
      <trkpt lat="43.62425" lon="3.42701">
        <ele>213</ele>
        <time>2022-02-04T19:56:41Z</time>
      </trkpt>
      <trkpt lat="43.62419" lon="3.42691">
        <ele>217</ele>
        <time>2022-02-04T19:56:54Z</time>
      </trkpt>
      <trkpt lat="43.62382" lon="3.42661">
        <ele>221</ele>
        <time>2022-02-04T19:57:51Z</time>
      </trkpt>
      <trkpt lat="43.62358" lon="3.42645">
        <ele>220</ele>
        <time>2022-02-04T19:58:27Z</time>
      </trkpt>
      <trkpt lat="43.62339" lon="3.42643">
        <ele>221</ele>
        <time>2022-02-04T19:58:52Z</time>
      </trkpt>
      <trkpt lat="43.62312" lon="3.42652">
        <ele>226</ele>
        <time>2022-02-04T19:59:29Z</time>
      </trkpt>
      <trkpt lat="43.62296" lon="3.42652">
        <ele>229</ele>
        <time>2022-02-04T19:59:50Z</time>
      </trkpt>
      <trkpt lat="43.62273" lon="3.42643">
        <ele>231</ele>
        <time>2022-02-04T20:00:22Z</time>
      </trkpt>
      <trkpt lat="43.62256" lon="3.42625">
        <ele>230</ele>
        <time>2022-02-04T20:00:51Z</time>
      </trkpt>
      <trkpt lat="43.62241" lon="3.42601">
        <ele>228</ele>
        <time>2022-02-04T20:01:22Z</time>
      </trkpt>
      <trkpt lat="43.62215" lon="3.42497">
        <ele>222</ele>
        <time>2022-02-04T20:03:08Z</time>
      </trkpt>
      <trkpt lat="43.62209" lon="3.42484">
        <ele>222</ele>
        <time>2022-02-04T20:03:23Z</time>
      </trkpt>
      <trkpt lat="43.62195" lon="3.42465">
        <ele>224</ele>
        <time>2022-02-04T20:03:49Z</time>
      </trkpt>
      <trkpt lat="43.62184" lon="3.42457">
        <ele>226</ele>
        <time>2022-02-04T20:04:06Z</time>
      </trkpt>
      <trkpt lat="43.62154" lon="3.42426">
        <ele>227</ele>
        <time>2022-02-04T20:04:56Z</time>
      </trkpt>
      <trkpt lat="43.62127" lon="3.42383">
        <ele>228</ele>
        <time>2022-02-04T20:05:51Z</time>
      </trkpt>
      <trkpt lat="43.62121" lon="3.42355">
        <ele>228</ele>
        <time>2022-02-04T20:06:19Z</time>
      </trkpt>
      <trkpt lat="43.62122" lon="3.42342">
        <ele>228</ele>
        <time>2022-02-04T20:06:31Z</time>
      </trkpt>
      <trkpt lat="43.62129" lon="3.42313">
        <ele>230</ele>
        <time>2022-02-04T20:07:01Z</time>
      </trkpt>
      <trkpt lat="43.62152" lon="3.42255">
        <ele>234</ele>
        <time>2022-02-04T20:08:05Z</time>
      </trkpt>
      <trkpt lat="43.62158" lon="3.42234">
        <ele>233</ele>
        <time>2022-02-04T20:08:27Z</time>
      </trkpt>
      <trkpt lat="43.6216" lon="3.42217">
        <ele>233</ele>
        <time>2022-02-04T20:08:43Z</time>
      </trkpt>
      <trkpt lat="43.62158" lon="3.422">
        <ele>233</ele>
        <time>2022-02-04T20:09:00Z</time>
      </trkpt>
      <trkpt lat="43.62153" lon="3.42186">
        <ele>234</ele>
        <time>2022-02-04T20:09:15Z</time>
      </trkpt>
      <trkpt lat="43.62132" lon="3.42148">
        <ele>235</ele>
        <time>2022-02-04T20:10:01Z</time>
      </trkpt>
      <trkpt lat="43.62121" lon="3.4214">
        <ele>236</ele>
        <time>2022-02-04T20:10:18Z</time>
      </trkpt>
      <trkpt lat="43.62092" lon="3.42131">
        <ele>239</ele>
        <time>2022-02-04T20:10:57Z</time>
      </trkpt>
      <trkpt lat="43.62013" lon="3.42119">
        <ele>245</ele>
        <time>2022-02-04T20:12:43Z</time>
      </trkpt>
      <trkpt lat="43.61989" lon="3.42113">
        <ele>248</ele>
        <time>2022-02-04T20:13:16Z</time>
      </trkpt>
      <trkpt lat="43.6195" lon="3.4209">
        <ele>254</ele>
        <time>2022-02-04T20:14:13Z</time>
      </trkpt>
      <trkpt lat="43.61913" lon="3.42057">
        <ele>257</ele>
        <time>2022-02-04T20:15:11Z</time>
      </trkpt>
      <trkpt lat="43.61891" lon="3.42044">
        <ele>258</ele>
        <time>2022-02-04T20:15:43Z</time>
      </trkpt>
      <trkpt lat="43.61857" lon="3.4201">
        <ele>260</ele>
        <time>2022-02-04T20:16:39Z</time>
      </trkpt>
      <trkpt lat="43.61837" lon="3.41995">
        <ele>263</ele>
        <time>2022-02-04T20:17:10Z</time>
      </trkpt>
      <trkpt lat="43.61824" lon="3.41976">
        <ele>266</ele>
        <time>2022-02-04T20:17:35Z</time>
      </trkpt>
      <trkpt lat="43.61818" lon="3.41955">
        <ele>267</ele>
        <time>2022-02-04T20:17:57Z</time>
      </trkpt>
      <trkpt lat="43.61822" lon="3.41895">
        <ele>265</ele>
        <time>2022-02-04T20:18:55Z</time>
      </trkpt>
      <trkpt lat="43.61818" lon="3.41868">
        <ele>266</ele>
        <time>2022-02-04T20:19:22Z</time>
      </trkpt>
      <trkpt lat="43.61814" lon="3.41858">
        <ele>266</ele>
        <time>2022-02-04T20:19:33Z</time>
      </trkpt>
      <trkpt lat="43.61805" lon="3.41841">
        <ele>268</ele>
        <time>2022-02-04T20:19:53Z</time>
      </trkpt>
      <trkpt lat="43.61769" lon="3.41792">
        <ele>269</ele>
        <time>2022-02-04T20:21:00Z</time>
      </trkpt>
      <trkpt lat="43.61744" lon="3.41763">
        <ele>270</ele>
        <time>2022-02-04T20:21:44Z</time>
      </trkpt>
      <trkpt lat="43.61723" lon="3.41744">
        <ele>269</ele>
        <time>2022-02-04T20:22:17Z</time>
      </trkpt>
      <trkpt lat="43.61711" lon="3.41741">
        <ele>269</ele>
        <time>2022-02-04T20:22:34Z</time>
      </trkpt>
      <trkpt lat="43.61703" lon="3.41745">
        <ele>271</ele>
        <time>2022-02-04T20:22:45Z</time>
      </trkpt>
      <trkpt lat="43.61692" lon="3.41755">
        <ele>273</ele>
        <time>2022-02-04T20:23:03Z</time>
      </trkpt>
      <trkpt lat="43.61669" lon="3.41784">
        <ele>278</ele>
        <time>2022-02-04T20:23:44Z</time>
      </trkpt>
      <trkpt lat="43.61594" lon="3.4184">
        <ele>276</ele>
        <time>2022-02-04T20:25:38Z</time>
      </trkpt>
      <trkpt lat="43.61572" lon="3.41848">
        <ele>274</ele>
        <time>2022-02-04T20:26:08Z</time>
      </trkpt>
      <trkpt lat="43.61562" lon="3.41848">
        <ele>274</ele>
        <time>2022-02-04T20:26:22Z</time>
      </trkpt>
      <trkpt lat="43.61548" lon="3.41842">
        <ele>272</ele>
        <time>2022-02-04T20:26:41Z</time>
      </trkpt>
      <trkpt lat="43.6153" lon="3.4182">
        <ele>270</ele>
        <time>2022-02-04T20:27:13Z</time>
      </trkpt>
      <trkpt lat="43.61518" lon="3.41786">
        <ele>268</ele>
        <time>2022-02-04T20:27:50Z</time>
      </trkpt>
      <trkpt lat="43.61516" lon="3.41772">
        <ele>268</ele>
        <time>2022-02-04T20:28:04Z</time>
      </trkpt>
      <trkpt lat="43.61516" lon="3.41711">
        <ele>263</ele>
        <time>2022-02-04T20:29:03Z</time>
      </trkpt>
      <trkpt lat="43.61508" lon="3.41688">
        <ele>262</ele>
        <time>2022-02-04T20:29:27Z</time>
      </trkpt>
      <trkpt lat="43.615" lon="3.41682">
        <ele>262</ele>
        <time>2022-02-04T20:29:39Z</time>
      </trkpt>
      <trkpt lat="43.6149" lon="3.4168">
        <ele>263</ele>
        <time>2022-02-04T20:29:53Z</time>
      </trkpt>
      <trkpt lat="43.61476" lon="3.41673">
        <ele>263</ele>
        <time>2022-02-04T20:30:13Z</time>
      </trkpt>
      <trkpt lat="43.61466" lon="3.41658">
        <ele>261</ele>
        <time>2022-02-04T20:30:32Z</time>
      </trkpt>
      <trkpt lat="43.61455" lon="3.41628">
        <ele>258</ele>
        <time>2022-02-04T20:31:05Z</time>
      </trkpt>
      <trkpt lat="43.61443" lon="3.41609">
        <ele>257</ele>
        <time>2022-02-04T20:31:29Z</time>
      </trkpt>
      <trkpt lat="43.61429" lon="3.41598">
        <ele>257</ele>
        <time>2022-02-04T20:31:51Z</time>
      </trkpt>
      <trkpt lat="43.61398" lon="3.41581">
        <ele>255</ele>
        <time>2022-02-04T20:32:35Z</time>
      </trkpt>
      <trkpt lat="43.61384" lon="3.41577">
        <ele>252</ele>
        <time>2022-02-04T20:32:54Z</time>
      </trkpt>
      <trkpt lat="43.61379" lon="3.41572">
        <ele>251</ele>
        <time>2022-02-04T20:33:03Z</time>
      </trkpt>
      <trkpt lat="43.6138" lon="3.41566">
        <ele>251</ele>
        <time>2022-02-04T20:33:09Z</time>
      </trkpt>
      <trkpt lat="43.61392" lon="3.41563">
        <ele>252</ele>
        <time>2022-02-04T20:33:25Z</time>
      </trkpt>
      <trkpt lat="43.61396" lon="3.41559">
        <ele>252</ele>
        <time>2022-02-04T20:33:31Z</time>
      </trkpt>
      <trkpt lat="43.61397" lon="3.41551">
        <ele>251</ele>
        <time>2022-02-04T20:33:39Z</time>
      </trkpt>
      <trkpt lat="43.61389" lon="3.41516">
        <ele>247</ele>
        <time>2022-02-04T20:34:15Z</time>
      </trkpt>
      <trkpt lat="43.61376" lon="3.41487">
        <ele>242</ele>
        <time>2022-02-04T20:34:48Z</time>
      </trkpt>
      <trkpt lat="43.61368" lon="3.41484">
        <ele>241</ele>
        <time>2022-02-04T20:34:59Z</time>
      </trkpt>
      <trkpt lat="43.61345" lon="3.41495">
        <ele>242</ele>
        <time>2022-02-04T20:35:31Z</time>
      </trkpt>
      <trkpt lat="43.61326" lon="3.41499">
        <ele>241</ele>
        <time>2022-02-04T20:35:57Z</time>
      </trkpt>
      <trkpt lat="43.61316" lon="3.4151">
        <ele>239</ele>
        <time>2022-02-04T20:36:14Z</time>
      </trkpt>
      <trkpt lat="43.61311" lon="3.41532">
        <ele>239</ele>
        <time>2022-02-04T20:36:36Z</time>
      </trkpt>
      <trkpt lat="43.61308" lon="3.41536">
        <ele>239</ele>
        <time>2022-02-04T20:36:42Z</time>
      </trkpt>
      <trkpt lat="43.61301" lon="3.41534">
        <ele>237</ele>
        <time>2022-02-04T20:36:51Z</time>
      </trkpt>
      <trkpt lat="43.61291" lon="3.41482">
        <ele>232</ele>
        <time>2022-02-04T20:37:43Z</time>
      </trkpt>
      <trkpt lat="43.61278" lon="3.41452">
        <ele>227</ele>
        <time>2022-02-04T20:38:17Z</time>
      </trkpt>
      <trkpt lat="43.61261" lon="3.41437">
        <ele>224</ele>
        <time>2022-02-04T20:38:44Z</time>
      </trkpt>
      <trkpt lat="43.61243" lon="3.41434">
        <ele>223</ele>
        <time>2022-02-04T20:39:08Z</time>
      </trkpt>
      <trkpt lat="43.61269" lon="3.41442">
        <ele>225</ele>
        <time>2022-02-04T20:39:44Z</time>
      </trkpt>
      <trkpt lat="43.61257" lon="3.41435">
        <ele>223</ele>
        <time>2022-02-04T20:40:01Z</time>
      </trkpt>
      <trkpt lat="43.61246" lon="3.41433">
        <ele>223</ele>
        <time>2022-02-04T20:40:16Z</time>
      </trkpt>
      <trkpt lat="43.61243" lon="3.41431">
        <ele>223</ele>
        <time>2022-02-04T20:40:20Z</time>
      </trkpt>
      <trkpt lat="43.61242" lon="3.41426">
        <ele>223</ele>
        <time>2022-02-04T20:40:25Z</time>
      </trkpt>
      <trkpt lat="43.61243" lon="3.41419">
        <ele>222</ele>
        <time>2022-02-04T20:40:32Z</time>
      </trkpt>
      <trkpt lat="43.61248" lon="3.41413">
        <ele>221</ele>
        <time>2022-02-04T20:40:41Z</time>
      </trkpt>
      <trkpt lat="43.61271" lon="3.41401">
        <ele>221</ele>
        <time>2022-02-04T20:41:14Z</time>
      </trkpt>
      <trkpt lat="43.61277" lon="3.41395">
        <ele>221</ele>
        <time>2022-02-04T20:41:24Z</time>
      </trkpt>
      <trkpt lat="43.61289" lon="3.41374">
        <ele>219</ele>
        <time>2022-02-04T20:41:50Z</time>
      </trkpt>
      <trkpt lat="43.61296" lon="3.41346">
        <ele>216</ele>
        <time>2022-02-04T20:42:18Z</time>
      </trkpt>
      <trkpt lat="43.613" lon="3.41276">
        <ele>206</ele>
        <time>2022-02-04T20:43:26Z</time>
      </trkpt>
      <trkpt lat="43.61299" lon="3.41253">
        <ele>203</ele>
        <time>2022-02-04T20:43:48Z</time>
      </trkpt>
      <trkpt lat="43.61289" lon="3.41211">
        <ele>195</ele>
        <time>2022-02-04T20:44:31Z</time>
      </trkpt>
      <trkpt lat="43.61268" lon="3.41166">
        <ele>186</ele>
        <time>2022-02-04T20:45:23Z</time>
      </trkpt>
      <trkpt lat="43.61267" lon="3.4116">
        <ele>184</ele>
        <time>2022-02-04T20:45:29Z</time>
      </trkpt>
      <trkpt lat="43.61271" lon="3.41136">
        <ele>180</ele>
        <time>2022-02-04T20:45:53Z</time>
      </trkpt>
      <trkpt lat="43.6127" lon="3.41108">
        <ele>175</ele>
        <time>2022-02-04T20:46:20Z</time>
      </trkpt>
      <trkpt lat="43.61265" lon="3.41088">
        <ele>172</ele>
        <time>2022-02-04T20:46:40Z</time>
      </trkpt>
      <trkpt lat="43.61256" lon="3.41069">
        <ele>169</ele>
        <time>2022-02-04T20:47:02Z</time>
      </trkpt>
      <trkpt lat="43.61246" lon="3.41055">
        <ele>167</ele>
        <time>2022-02-04T20:47:21Z</time>
      </trkpt>
      <trkpt lat="43.61216" lon="3.41038">
        <ele>169</ele>
        <time>2022-02-04T20:48:04Z</time>
      </trkpt>
      <trkpt lat="43.61139" lon="3.40979">
        <ele>173</ele>
        <time>2022-02-04T20:50:02Z</time>
      </trkpt>
      <trkpt lat="43.61109" lon="3.40953">
        <ele>172</ele>
        <time>2022-02-04T20:50:49Z</time>
      </trkpt>
      <trkpt lat="43.61099" lon="3.40949">
        <ele>172</ele>
        <time>2022-02-04T20:51:03Z</time>
      </trkpt>
      <trkpt lat="43.61073" lon="3.40953">
        <ele>176</ele>
        <time>2022-02-04T20:51:38Z</time>
      </trkpt>
      <trkpt lat="43.61063" lon="3.40951">
        <ele>177</ele>
        <time>2022-02-04T20:51:51Z</time>
      </trkpt>
      <trkpt lat="43.61056" lon="3.40944">
        <ele>176</ele>
        <time>2022-02-04T20:52:03Z</time>
      </trkpt>
      <trkpt lat="43.6106" lon="3.40925">
        <ele>171</ele>
        <time>2022-02-04T20:52:22Z</time>
      </trkpt>
      <trkpt lat="43.61059" lon="3.40919">
        <ele>170</ele>
        <time>2022-02-04T20:52:28Z</time>
      </trkpt>
      <trkpt lat="43.61039" lon="3.40906">
        <ele>169</ele>
        <time>2022-02-04T20:52:58Z</time>
      </trkpt>
      <trkpt lat="43.61023" lon="3.40901">
        <ele>170</ele>
        <time>2022-02-04T20:53:19Z</time>
      </trkpt>
      <trkpt lat="43.60986" lon="3.40902">
        <ele>172</ele>
        <time>2022-02-04T20:54:09Z</time>
      </trkpt>
      <trkpt lat="43.60961" lon="3.409">
        <ele>172</ele>
        <time>2022-02-04T20:54:42Z</time>
      </trkpt>
      <trkpt lat="43.60952" lon="3.40902">
        <ele>173</ele>
        <time>2022-02-04T20:54:54Z</time>
      </trkpt>
      <trkpt lat="43.60948" lon="3.40903">
        <ele>173</ele>
        <time>2022-02-04T20:55:00Z</time>
      </trkpt>
      <trkpt lat="43.60939" lon="3.40913">
        <ele>175</ele>
        <time>2022-02-04T20:55:15Z</time>
      </trkpt>
      <trkpt lat="43.60927" lon="3.40917">
        <ele>176</ele>
        <time>2022-02-04T20:55:32Z</time>
      </trkpt>
      <trkpt lat="43.60916" lon="3.40925">
        <ele>178</ele>
        <time>2022-02-04T20:55:48Z</time>
      </trkpt>
      <trkpt lat="43.609" lon="3.40932">
        <ele>179</ele>
        <time>2022-02-04T20:56:11Z</time>
      </trkpt>
      <trkpt lat="43.6087" lon="3.40938">
        <ele>181</ele>
        <time>2022-02-04T20:56:51Z</time>
      </trkpt>
      <trkpt lat="43.60838" lon="3.4094">
        <ele>181</ele>
        <time>2022-02-04T20:57:34Z</time>
      </trkpt>
      <trkpt lat="43.6081" lon="3.40952">
        <ele>183</ele>
        <time>2022-02-04T20:58:13Z</time>
      </trkpt>
      <trkpt lat="43.60782" lon="3.40947">
        <ele>181</ele>
        <time>2022-02-04T20:58:51Z</time>
      </trkpt>
      <trkpt lat="43.60772" lon="3.40941">
        <ele>180</ele>
        <time>2022-02-04T20:59:05Z</time>
      </trkpt>
      <trkpt lat="43.60757" lon="3.40924">
        <ele>176</ele>
        <time>2022-02-04T20:59:31Z</time>
      </trkpt>
      <trkpt lat="43.60746" lon="3.40916">
        <ele>175</ele>
        <time>2022-02-04T20:59:48Z</time>
      </trkpt>
      <trkpt lat="43.60728" lon="3.40907">
        <ele>171</ele>
        <time>2022-02-04T21:00:13Z</time>
      </trkpt>
      <trkpt lat="43.60717" lon="3.40906">
        <ele>170</ele>
        <time>2022-02-04T21:00:28Z</time>
      </trkpt>
      <trkpt lat="43.60667" lon="3.40926">
        <ele>170</ele>
        <time>2022-02-04T21:01:37Z</time>
      </trkpt>
      <trkpt lat="43.6064" lon="3.40954">
        <ele>172</ele>
        <time>2022-02-04T21:02:22Z</time>
      </trkpt>
      <trkpt lat="43.60624" lon="3.40963">
        <ele>172</ele>
        <time>2022-02-04T21:02:46Z</time>
      </trkpt>
      <trkpt lat="43.60618" lon="3.40964">
        <ele>172</ele>
        <time>2022-02-04T21:02:54Z</time>
      </trkpt>
      <trkpt lat="43.60608" lon="3.40962">
        <ele>171</ele>
        <time>2022-02-04T21:03:07Z</time>
      </trkpt>
      <trkpt lat="43.60557" lon="3.40927">
        <ele>161</ele>
        <time>2022-02-04T21:04:23Z</time>
      </trkpt>
      <trkpt lat="43.60558" lon="3.40918">
        <ele>159</ele>
        <time>2022-02-04T21:04:32Z</time>
      </trkpt>
      <trkpt lat="43.60567" lon="3.40908">
        <ele>157</ele>
        <time>2022-02-04T21:04:47Z</time>
      </trkpt>
      <trkpt lat="43.60576" lon="3.40889">
        <ele>154</ele>
        <time>2022-02-04T21:05:09Z</time>
      </trkpt>
      <trkpt lat="43.60586" lon="3.40859">
        <ele>149</ele>
        <time>2022-02-04T21:05:41Z</time>
      </trkpt>
      <trkpt lat="43.60595" lon="3.40817">
        <ele>143</ele>
        <time>2022-02-04T21:06:23Z</time>
      </trkpt>
      <trkpt lat="43.60613" lon="3.40796">
        <ele>141</ele>
        <time>2022-02-04T21:06:55Z</time>
      </trkpt>
      <trkpt lat="43.60621" lon="3.40782">
        <ele>140</ele>
        <time>2022-02-04T21:07:12Z</time>
      </trkpt>
      <trkpt lat="43.60632" lon="3.40734">
        <ele>136</ele>
        <time>2022-02-04T21:08:01Z</time>
      </trkpt>
      <trkpt lat="43.6065" lon="3.40677">
        <ele>134</ele>
        <time>2022-02-04T21:09:01Z</time>
      </trkpt>
      <trkpt lat="43.6067" lon="3.40662">
        <ele>135</ele>
        <time>2022-02-04T21:09:31Z</time>
      </trkpt>
      <trkpt lat="43.60678" lon="3.40644">
        <ele>133</ele>
        <time>2022-02-04T21:09:52Z</time>
      </trkpt>
      <trkpt lat="43.60687" lon="3.40631">
        <ele>131</ele>
        <time>2022-02-04T21:10:09Z</time>
      </trkpt>
      <trkpt lat="43.60697" lon="3.4063">
        <ele>131</ele>
        <time>2022-02-04T21:10:22Z</time>
      </trkpt>
      <trkpt lat="43.60712" lon="3.40618">
        <ele>130</ele>
        <time>2022-02-04T21:10:46Z</time>
      </trkpt>
      <trkpt lat="43.60722" lon="3.40619">
        <ele>130</ele>
        <time>2022-02-04T21:10:59Z</time>
      </trkpt>
      <trkpt lat="43.60723" lon="3.40615">
        <ele>129</ele>
        <time>2022-02-04T21:11:03Z</time>
      </trkpt>
      <trkpt lat="43.6072" lon="3.4061">
        <ele>129</ele>
        <time>2022-02-04T21:11:09Z</time>
      </trkpt>
      <trkpt lat="43.60641" lon="3.40584">
        <ele>127</ele>
        <time>2022-02-04T21:12:58Z</time>
      </trkpt>
      <trkpt lat="43.60633" lon="3.40585">
        <ele>127</ele>
        <time>2022-02-04T21:13:08Z</time>
      </trkpt>
      <trkpt lat="43.60622" lon="3.40594">
        <ele>128</ele>
        <time>2022-02-04T21:13:25Z</time>
      </trkpt>
      <trkpt lat="43.606" lon="3.40637">
        <ele>127</ele>
        <time>2022-02-04T21:14:16Z</time>
      </trkpt>
      <trkpt lat="43.60581" lon="3.40657">
        <ele>125</ele>
        <time>2022-02-04T21:14:48Z</time>
      </trkpt>
      <trkpt lat="43.60559" lon="3.4065">
        <ele>125</ele>
        <time>2022-02-04T21:15:18Z</time>
      </trkpt>
      <trkpt lat="43.60549" lon="3.40641">
        <ele>125</ele>
        <time>2022-02-04T21:15:34Z</time>
      </trkpt>
      <trkpt lat="43.60538" lon="3.40636">
        <ele>125</ele>
        <time>2022-02-04T21:15:50Z</time>
      </trkpt>
      <trkpt lat="43.6053" lon="3.40643">
        <ele>124</ele>
        <time>2022-02-04T21:16:02Z</time>
      </trkpt>
      <trkpt lat="43.60513" lon="3.4064">
        <ele>124</ele>
        <time>2022-02-04T21:16:25Z</time>
      </trkpt>
      <trkpt lat="43.605" lon="3.40643">
        <ele>123</ele>
        <time>2022-02-04T21:16:43Z</time>
      </trkpt>
      <trkpt lat="43.6048" lon="3.40662">
        <ele>122</ele>
        <time>2022-02-04T21:17:15Z</time>
      </trkpt>
      <trkpt lat="43.60452" lon="3.40671">
        <ele>121</ele>
        <time>2022-02-04T21:17:54Z</time>
      </trkpt>
      <trkpt lat="43.60444" lon="3.4067">
        <ele>121</ele>
        <time>2022-02-04T21:18:04Z</time>
      </trkpt>
      <trkpt lat="43.6043" lon="3.40662">
        <ele>122</ele>
        <time>2022-02-04T21:18:25Z</time>
      </trkpt>
      <trkpt lat="43.60425" lon="3.40656">
        <ele>122</ele>
        <time>2022-02-04T21:18:33Z</time>
      </trkpt>
      <trkpt lat="43.60422" lon="3.40656">
        <ele>122</ele>
        <time>2022-02-04T21:18:37Z</time>
      </trkpt>
      <trkpt lat="43.60418" lon="3.40676">
        <ele>121</ele>
        <time>2022-02-04T21:18:57Z</time>
      </trkpt>
      <trkpt lat="43.60419" lon="3.40705">
        <ele>119</ele>
        <time>2022-02-04T21:19:25Z</time>
      </trkpt>
      <trkpt lat="43.60412" lon="3.40706">
        <ele>119</ele>
        <time>2022-02-04T21:19:35Z</time>
      </trkpt>
      <trkpt lat="43.60398" lon="3.40701">
        <ele>118</ele>
        <time>2022-02-04T21:19:54Z</time>
      </trkpt>
      <trkpt lat="43.60367" lon="3.4068">
        <ele>117</ele>
        <time>2022-02-04T21:20:40Z</time>
      </trkpt>
      <trkpt lat="43.60351" lon="3.40679">
        <ele>116</ele>
        <time>2022-02-04T21:21:02Z</time>
      </trkpt>
      <trkpt lat="43.60342" lon="3.40686">
        <ele>115</ele>
        <time>2022-02-04T21:21:15Z</time>
      </trkpt>
      <trkpt lat="43.60335" lon="3.40697">
        <ele>115</ele>
        <time>2022-02-04T21:21:30Z</time>
      </trkpt>
      <trkpt lat="43.60322" lon="3.40727">
        <ele>117</ele>
        <time>2022-02-04T21:22:03Z</time>
      </trkpt>
      <trkpt lat="43.60249" lon="3.40751">
        <ele>122</ele>
        <time>2022-02-04T21:23:43Z</time>
      </trkpt>
      <trkpt lat="43.60228" lon="3.40763">
        <ele>123</ele>
        <time>2022-02-04T21:24:14Z</time>
      </trkpt>
      <trkpt lat="43.60186" lon="3.40815">
        <ele>127</ele>
        <time>2022-02-04T21:25:29Z</time>
      </trkpt>
      <trkpt lat="43.60167" lon="3.40834">
        <ele>126</ele>
        <time>2022-02-04T21:26:00Z</time>
      </trkpt>
      <trkpt lat="43.60143" lon="3.40846">
        <ele>125</ele>
        <time>2022-02-04T21:26:34Z</time>
      </trkpt>
      <trkpt lat="43.60127" lon="3.4087">
        <ele>126</ele>
        <time>2022-02-04T21:27:06Z</time>
      </trkpt>
      <trkpt lat="43.60064" lon="3.41003">
        <ele>125</ele>
        <time>2022-02-04T21:29:40Z</time>
      </trkpt>
      <trkpt lat="43.6005" lon="3.41023">
        <ele>125</ele>
        <time>2022-02-04T21:30:06Z</time>
      </trkpt>
      <trkpt lat="43.60009" lon="3.41069">
        <ele>123</ele>
        <time>2022-02-04T21:31:17Z</time>
      </trkpt>
      <trkpt lat="43.59991" lon="3.41098">
        <ele>122</ele>
        <time>2022-02-04T21:31:54Z</time>
      </trkpt>
      <trkpt lat="43.5996" lon="3.41176">
        <ele>124</ele>
        <time>2022-02-04T21:33:20Z</time>
      </trkpt>
      <trkpt lat="43.59943" lon="3.41232">
        <ele>125</ele>
        <time>2022-02-04T21:34:18Z</time>
      </trkpt>
      <trkpt lat="43.59934" lon="3.4125">
        <ele>124</ele>
        <time>2022-02-04T21:34:40Z</time>
      </trkpt>
      <trkpt lat="43.59918" lon="3.41268">
        <ele>123</ele>
        <time>2022-02-04T21:35:07Z</time>
      </trkpt>
      <trkpt lat="43.59806" lon="3.41369">
        <ele>118</ele>
        <time>2022-02-04T21:38:06Z</time>
      </trkpt>
      <trkpt lat="43.59798" lon="3.4138">
        <ele>117</ele>
        <time>2022-02-04T21:38:21Z</time>
      </trkpt>
      <trkpt lat="43.59778" lon="3.41439">
        <ele>120</ele>
        <time>2022-02-04T21:39:24Z</time>
      </trkpt>
      <trkpt lat="43.59761" lon="3.41466">
        <ele>119</ele>
        <time>2022-02-04T21:39:58Z</time>
      </trkpt>
      <trkpt lat="43.59755" lon="3.41471">
        <ele>119</ele>
        <time>2022-02-04T21:40:08Z</time>
      </trkpt>
      <trkpt lat="43.59735" lon="3.4148">
        <ele>116</ele>
        <time>2022-02-04T21:40:36Z</time>
      </trkpt>
      <trkpt lat="43.59706" lon="3.41484">
        <ele>111</ele>
        <time>2022-02-04T21:41:15Z</time>
      </trkpt>
      <trkpt lat="43.59686" lon="3.41492">
        <ele>109</ele>
        <time>2022-02-04T21:41:42Z</time>
      </trkpt>
      <trkpt lat="43.5968" lon="3.41495">
        <ele>108</ele>
        <time>2022-02-04T21:41:51Z</time>
      </trkpt>
      <trkpt lat="43.59668" lon="3.41509">
        <ele>107</ele>
        <time>2022-02-04T21:42:12Z</time>
      </trkpt>
      <trkpt lat="43.59664" lon="3.41516">
        <ele>106</ele>
        <time>2022-02-04T21:42:20Z</time>
      </trkpt>
      <trkpt lat="43.59648" lon="3.41588">
        <ele>107</ele>
        <time>2022-02-04T21:43:33Z</time>
      </trkpt>
      <trkpt lat="43.59626" lon="3.41633">
        <ele>106</ele>
        <time>2022-02-04T21:44:26Z</time>
      </trkpt>
      <trkpt lat="43.59623" lon="3.41649">
        <ele>106</ele>
        <time>2022-02-04T21:44:42Z</time>
      </trkpt>
      <trkpt lat="43.59615" lon="3.41668">
        <ele>106</ele>
        <time>2022-02-04T21:45:03Z</time>
      </trkpt>
      <trkpt lat="43.59598" lon="3.41695">
        <ele>105</ele>
        <time>2022-02-04T21:45:38Z</time>
      </trkpt>
      <trkpt lat="43.59595" lon="3.4171">
        <ele>105</ele>
        <time>2022-02-04T21:45:53Z</time>
      </trkpt>
      <trkpt lat="43.59599" lon="3.41714">
        <ele>107</ele>
        <time>2022-02-04T21:45:59Z</time>
      </trkpt>
      <trkpt lat="43.59608" lon="3.41711">
        <ele>109</ele>
        <time>2022-02-04T21:46:11Z</time>
      </trkpt>
      <trkpt lat="43.59622" lon="3.41716">
        <ele>112</ele>
        <time>2022-02-04T21:46:31Z</time>
      </trkpt>
      <trkpt lat="43.59627" lon="3.41734">
        <ele>115</ele>
        <time>2022-02-04T21:46:49Z</time>
      </trkpt>
      <trkpt lat="43.59641" lon="3.41742">
        <ele>120</ele>
        <time>2022-02-04T21:47:10Z</time>
      </trkpt>
      <trkpt lat="43.59654" lon="3.4176">
        <ele>124</ele>
        <time>2022-02-04T21:47:34Z</time>
      </trkpt>
      <trkpt lat="43.59656" lon="3.41769">
        <ele>125</ele>
        <time>2022-02-04T21:47:43Z</time>
      </trkpt>
      <trkpt lat="43.59654" lon="3.41801">
        <ele>127</ele>
        <time>2022-02-04T21:48:14Z</time>
      </trkpt>
      <trkpt lat="43.59657" lon="3.41822">
        <ele>129</ele>
        <time>2022-02-04T21:48:35Z</time>
      </trkpt>
      <trkpt lat="43.59664" lon="3.41847">
        <ele>133</ele>
        <time>2022-02-04T21:49:01Z</time>
      </trkpt>
      <trkpt lat="43.59666" lon="3.41902">
        <ele>136</ele>
        <time>2022-02-04T21:49:54Z</time>
      </trkpt>
      <trkpt lat="43.5967" lon="3.41939">
        <ele>139</ele>
        <time>2022-02-04T21:50:30Z</time>
      </trkpt>
      <trkpt lat="43.59666" lon="3.41958">
        <ele>139</ele>
        <time>2022-02-04T21:50:49Z</time>
      </trkpt>
      <trkpt lat="43.5966" lon="3.4197">
        <ele>138</ele>
        <time>2022-02-04T21:51:04Z</time>
      </trkpt>
      <trkpt lat="43.59629" lon="3.41998">
        <ele>130</ele>
        <time>2022-02-04T21:51:53Z</time>
      </trkpt>
      <trkpt lat="43.59602" lon="3.42028">
        <ele>125</ele>
        <time>2022-02-04T21:52:39Z</time>
      </trkpt>
      <trkpt lat="43.59595" lon="3.42059">
        <ele>126</ele>
        <time>2022-02-04T21:53:11Z</time>
      </trkpt>
      <trkpt lat="43.5958" lon="3.42097">
        <ele>122</ele>
        <time>2022-02-04T21:53:52Z</time>
      </trkpt>
      <trkpt lat="43.59581" lon="3.4214">
        <ele>121</ele>
        <time>2022-02-04T21:54:34Z</time>
      </trkpt>
      <trkpt lat="43.59584" lon="3.42154">
        <ele>122</ele>
        <time>2022-02-04T21:54:48Z</time>
      </trkpt>
      <trkpt lat="43.59587" lon="3.42158">
        <ele>122</ele>
        <time>2022-02-04T21:54:54Z</time>
      </trkpt>
      <trkpt lat="43.59614" lon="3.42173">
        <ele>127</ele>
        <time>2022-02-04T21:55:33Z</time>
      </trkpt>
      <trkpt lat="43.59645" lon="3.42195">
        <ele>130</ele>
        <time>2022-02-04T21:56:19Z</time>
      </trkpt>
      <trkpt lat="43.59668" lon="3.42232">
        <ele>127</ele>
        <time>2022-02-04T21:57:06Z</time>
      </trkpt>
      <trkpt lat="43.59686" lon="3.42254">
        <ele>124</ele>
        <time>2022-02-04T21:57:38Z</time>
      </trkpt>
      <trkpt lat="43.59698" lon="3.42263">
        <ele>124</ele>
        <time>2022-02-04T21:57:56Z</time>
      </trkpt>
      <trkpt lat="43.59715" lon="3.4227">
        <ele>125</ele>
        <time>2022-02-04T21:58:20Z</time>
      </trkpt>
      <trkpt lat="43.59754" lon="3.42279">
        <ele>128</ele>
        <time>2022-02-04T21:59:13Z</time>
      </trkpt>
      <trkpt lat="43.59755" lon="3.42277">
        <ele>128</ele>
        <time>2022-02-04T21:59:15Z</time>
      </trkpt>
      <trkpt lat="43.59765" lon="3.4229">
        <ele>127</ele>
        <time>2022-02-04T21:59:34Z</time>
      </trkpt>
      <trkpt lat="43.59766" lon="3.42303">
        <ele>126</ele>
        <time>2022-02-04T21:59:46Z</time>
      </trkpt>
      <trkpt lat="43.59751" lon="3.42363">
        <ele>121</ele>
        <time>2022-02-04T22:00:48Z</time>
      </trkpt>
      <trkpt lat="43.59746" lon="3.42374">
        <ele>121</ele>
        <time>2022-02-04T22:01:00Z</time>
      </trkpt>
      <trkpt lat="43.59735" lon="3.42375">
        <ele>120</ele>
        <time>2022-02-04T22:01:15Z</time>
      </trkpt>
      <trkpt lat="43.59713" lon="3.42363">
        <ele>118</ele>
        <time>2022-02-04T22:01:46Z</time>
      </trkpt>
      <trkpt lat="43.59637" lon="3.42335">
        <ele>109</ele>
        <time>2022-02-04T22:03:31Z</time>
      </trkpt>
      <trkpt lat="43.59628" lon="3.42337">
        <ele>108</ele>
        <time>2022-02-04T22:03:44Z</time>
      </trkpt>
      <trkpt lat="43.59598" lon="3.42362">
        <ele>107</ele>
        <time>2022-02-04T22:04:30Z</time>
      </trkpt>
      <trkpt lat="43.59565" lon="3.4238">
        <ele>104</ele>
        <time>2022-02-04T22:05:18Z</time>
      </trkpt>
      <trkpt lat="43.59554" lon="3.42393">
        <ele>103</ele>
        <time>2022-02-04T22:05:37Z</time>
      </trkpt>
      <trkpt lat="43.59549" lon="3.42403">
        <ele>103</ele>
        <time>2022-02-04T22:05:49Z</time>
      </trkpt>
      <trkpt lat="43.59549" lon="3.42415">
        <ele>104</ele>
        <time>2022-02-04T22:06:00Z</time>
      </trkpt>
      <trkpt lat="43.59563" lon="3.42452">
        <ele>107</ele>
        <time>2022-02-04T22:06:41Z</time>
      </trkpt>
      <trkpt lat="43.59605" lon="3.42588">
        <ele>112</ele>
        <time>2022-02-04T22:09:04Z</time>
      </trkpt>
      <trkpt lat="43.59618" lon="3.42647">
        <ele>113</ele>
        <time>2022-02-04T22:10:03Z</time>
      </trkpt>
      <trkpt lat="43.59636" lon="3.42706">
        <ele>114</ele>
        <time>2022-02-04T22:11:05Z</time>
      </trkpt>
      <trkpt lat="43.59662" lon="3.42773">
        <ele>112</ele>
        <time>2022-02-04T22:12:18Z</time>
      </trkpt>
      <trkpt lat="43.59714" lon="3.42878">
        <ele>116</ele>
        <time>2022-02-04T22:14:21Z</time>
      </trkpt>
      <trkpt lat="43.59727" lon="3.42921">
        <ele>115</ele>
        <time>2022-02-04T22:15:06Z</time>
      </trkpt>
      <trkpt lat="43.59733" lon="3.42933">
        <ele>115</ele>
        <time>2022-02-04T22:15:20Z</time>
      </trkpt>
      <trkpt lat="43.59769" lon="3.42984">
        <ele>115</ele>
        <time>2022-02-04T22:16:29Z</time>
      </trkpt>
      <trkpt lat="43.5978" lon="3.43007">
        <ele>114</ele>
        <time>2022-02-04T22:16:56Z</time>
      </trkpt>
      <trkpt lat="43.59806" lon="3.43089">
        <ele>109</ele>
        <time>2022-02-04T22:18:22Z</time>
      </trkpt>
      <trkpt lat="43.59826" lon="3.43135">
        <ele>109</ele>
        <time>2022-02-04T22:19:14Z</time>
      </trkpt>
      <trkpt lat="43.59842" lon="3.43162">
        <ele>109</ele>
        <time>2022-02-04T22:19:48Z</time>
      </trkpt>
      <trkpt lat="43.59881" lon="3.43212">
        <ele>109</ele>
        <time>2022-02-04T22:20:59Z</time>
      </trkpt>
      <trkpt lat="43.59947" lon="3.4329">
        <ele>108</ele>
        <time>2022-02-04T22:22:55Z</time>
      </trkpt>
      <trkpt lat="43.60005" lon="3.4337">
        <ele>104</ele>
        <time>2022-02-04T22:24:44Z</time>
      </trkpt>
      <trkpt lat="43.60008" lon="3.43378">
        <ele>104</ele>
        <time>2022-02-04T22:24:53Z</time>
      </trkpt>
      <trkpt lat="43.60001" lon="3.43383">
        <ele>104</ele>
        <time>2022-02-04T22:25:04Z</time>
      </trkpt>
      <trkpt lat="43.60001" lon="3.43387">
        <ele>103</ele>
        <time>2022-02-04T22:25:07Z</time>
      </trkpt>
      <trkpt lat="43.60005" lon="3.43385">
        <ele>104</ele>
        <time>2022-02-04T22:25:13Z</time>
      </trkpt>
      <trkpt lat="43.60008" lon="3.4337">
        <ele>104</ele>
        <time>2022-02-04T22:25:28Z</time>
      </trkpt>
      <trkpt lat="43.60031" lon="3.43339">
        <ele>106</ele>
        <time>2022-02-04T22:26:11Z</time>
      </trkpt>
      <trkpt lat="43.6004" lon="3.43323">
        <ele>108</ele>
        <time>2022-02-04T22:26:31Z</time>
      </trkpt>
      <trkpt lat="43.60049" lon="3.43299">
        <ele>110</ele>
        <time>2022-02-04T22:26:57Z</time>
      </trkpt>
      <trkpt lat="43.60065" lon="3.43276">
        <ele>112</ele>
        <time>2022-02-04T22:27:28Z</time>
      </trkpt>
      <trkpt lat="43.60072" lon="3.43245">
        <ele>115</ele>
        <time>2022-02-04T22:27:59Z</time>
      </trkpt>
      <trkpt lat="43.60074" lon="3.43202">
        <ele>118</ele>
        <time>2022-02-04T22:28:41Z</time>
      </trkpt>
      <trkpt lat="43.60083" lon="3.4317">
        <ele>119</ele>
        <time>2022-02-04T22:29:14Z</time>
      </trkpt>
      <trkpt lat="43.60106" lon="3.43106">
        <ele>127</ele>
        <time>2022-02-04T22:30:23Z</time>
      </trkpt>
      <trkpt lat="43.60125" lon="3.43029">
        <ele>130</ele>
        <time>2022-02-04T22:31:41Z</time>
      </trkpt>
      <trkpt lat="43.6018" lon="3.42929">
        <ele>131</ele>
        <time>2022-02-04T22:33:43Z</time>
      </trkpt>
      <trkpt lat="43.60195" lon="3.42908">
        <ele>132</ele>
        <time>2022-02-04T22:34:11Z</time>
      </trkpt>
      <trkpt lat="43.60212" lon="3.42869">
        <ele>133</ele>
        <time>2022-02-04T22:34:55Z</time>
      </trkpt>
      <trkpt lat="43.60229" lon="3.42863">
        <ele>132</ele>
        <time>2022-02-04T22:35:19Z</time>
      </trkpt>
      <trkpt lat="43.60238" lon="3.42866">
        <ele>131</ele>
        <time>2022-02-04T22:35:31Z</time>
      </trkpt>
      <trkpt lat="43.60247" lon="3.42861">
        <ele>131</ele>
        <time>2022-02-04T22:35:44Z</time>
      </trkpt>
      <trkpt lat="43.60258" lon="3.42859">
        <ele>131</ele>
        <time>2022-02-04T22:35:59Z</time>
      </trkpt>
      <trkpt lat="43.60269" lon="3.42863">
        <ele>132</ele>
        <time>2022-02-04T22:36:14Z</time>
      </trkpt>
      <trkpt lat="43.60276" lon="3.42869">
        <ele>132</ele>
        <time>2022-02-04T22:36:25Z</time>
      </trkpt>
      <trkpt lat="43.60285" lon="3.42868">
        <ele>133</ele>
        <time>2022-02-04T22:36:37Z</time>
      </trkpt>
      <trkpt lat="43.60317" lon="3.42877">
        <ele>135</ele>
        <time>2022-02-04T22:37:21Z</time>
      </trkpt>
      <trkpt lat="43.60334" lon="3.42877">
        <ele>137</ele>
        <time>2022-02-04T22:37:43Z</time>
      </trkpt>
      <trkpt lat="43.60357" lon="3.42871">
        <ele>137</ele>
        <time>2022-02-04T22:38:15Z</time>
      </trkpt>
      <trkpt lat="43.60382" lon="3.42824">
        <ele>140</ele>
        <time>2022-02-04T22:39:11Z</time>
      </trkpt>
      <trkpt lat="43.60391" lon="3.42816">
        <ele>142</ele>
        <time>2022-02-04T22:39:25Z</time>
      </trkpt>
      <trkpt lat="43.604" lon="3.42815">
        <ele>143</ele>
        <time>2022-02-04T22:39:37Z</time>
      </trkpt>
      <trkpt lat="43.60428" lon="3.42827">
        <ele>143</ele>
        <time>2022-02-04T22:40:16Z</time>
      </trkpt>
      <trkpt lat="43.60451" lon="3.4283">
        <ele>142</ele>
        <time>2022-02-04T22:40:47Z</time>
      </trkpt>
      <trkpt lat="43.60489" lon="3.42824">
        <ele>142</ele>
        <time>2022-02-04T22:41:38Z</time>
      </trkpt>
      <trkpt lat="43.60528" lon="3.42812">
        <ele>144</ele>
        <time>2022-02-04T22:42:32Z</time>
      </trkpt>
      <trkpt lat="43.60542" lon="3.42811">
        <ele>145</ele>
        <time>2022-02-04T22:42:50Z</time>
      </trkpt>
      <trkpt lat="43.60551" lon="3.42816">
        <ele>144</ele>
        <time>2022-02-04T22:43:03Z</time>
      </trkpt>
      <trkpt lat="43.60564" lon="3.42839">
        <ele>141</ele>
        <time>2022-02-04T22:43:31Z</time>
      </trkpt>
      <trkpt lat="43.60575" lon="3.42852">
        <ele>140</ele>
        <time>2022-02-04T22:43:51Z</time>
      </trkpt>
      <trkpt lat="43.60584" lon="3.42856">
        <ele>140</ele>
        <time>2022-02-04T22:44:03Z</time>
      </trkpt>
      <trkpt lat="43.60626" lon="3.42864">
        <ele>140</ele>
        <time>2022-02-04T22:45:00Z</time>
      </trkpt>
      <trkpt lat="43.60641" lon="3.42872">
        <ele>140</ele>
        <time>2022-02-04T22:45:21Z</time>
      </trkpt>
      <trkpt lat="43.60644" lon="3.42878">
        <ele>140</ele>
        <time>2022-02-04T22:45:28Z</time>
      </trkpt>
      <trkpt lat="43.60642" lon="3.42887">
        <ele>139</ele>
        <time>2022-02-04T22:45:37Z</time>
      </trkpt>
      <trkpt lat="43.60616" lon="3.42915">
        <ele>136</ele>
        <time>2022-02-04T22:46:21Z</time>
      </trkpt>
      <trkpt lat="43.60615" lon="3.4292">
        <ele>136</ele>
        <time>2022-02-04T22:46:26Z</time>
      </trkpt>
      <trkpt lat="43.60631" lon="3.42962">
        <ele>133</ele>
        <time>2022-02-04T22:47:12Z</time>
      </trkpt>
      <trkpt lat="43.60652" lon="3.42986">
        <ele>132</ele>
        <time>2022-02-04T22:47:49Z</time>
      </trkpt>
      <trkpt lat="43.60658" lon="3.43002">
        <ele>132</ele>
        <time>2022-02-04T22:48:06Z</time>
      </trkpt>
      <trkpt lat="43.60653" lon="3.4304">
        <ele>130</ele>
        <time>2022-02-04T22:48:43Z</time>
      </trkpt>
      <trkpt lat="43.60627" lon="3.43113">
        <ele>125</ele>
        <time>2022-02-04T22:50:02Z</time>
      </trkpt>
      <trkpt lat="43.60624" lon="3.43131">
        <ele>124</ele>
        <time>2022-02-04T22:50:20Z</time>
      </trkpt>
      <trkpt lat="43.60609" lon="3.43547">
        <ele>110</ele>
        <time>2022-02-04T22:57:02Z</time>
      </trkpt>
      <trkpt lat="43.60605" lon="3.43584">
        <ele>110</ele>
        <time>2022-02-04T22:57:39Z</time>
      </trkpt>
      <trkpt lat="43.60596" lon="3.43611">
        <ele>109</ele>
        <time>2022-02-04T22:58:07Z</time>
      </trkpt>
      <trkpt lat="43.6059" lon="3.43618">
        <ele>109</ele>
        <time>2022-02-04T22:58:18Z</time>
      </trkpt>
      <trkpt lat="43.60564" lon="3.43629">
        <ele>107</ele>
        <time>2022-02-04T22:58:54Z</time>
      </trkpt>
      <trkpt lat="43.60542" lon="3.43643">
        <ele>106</ele>
        <time>2022-02-04T22:59:26Z</time>
      </trkpt>
      <trkpt lat="43.6049" lon="3.43682">
        <ele>103</ele>
        <time>2022-02-04T23:00:45Z</time>
      </trkpt>
      <trkpt lat="43.6047" lon="3.437">
        <ele>103</ele>
        <time>2022-02-04T23:01:17Z</time>
      </trkpt>
      <trkpt lat="43.60457" lon="3.43707">
        <ele>103</ele>
        <time>2022-02-04T23:01:36Z</time>
      </trkpt>
      <trkpt lat="43.60449" lon="3.43698">
        <ele>102</ele>
        <time>2022-02-04T23:01:50Z</time>
      </trkpt>
      <trkpt lat="43.60437" lon="3.4367">
        <ele>101</ele>
        <time>2022-02-04T23:02:21Z</time>
      </trkpt>
      <trkpt lat="43.60429" lon="3.43644">
        <ele>101</ele>
        <time>2022-02-04T23:02:48Z</time>
      </trkpt>
      <trkpt lat="43.6043" lon="3.43637">
        <ele>101</ele>
        <time>2022-02-04T23:02:55Z</time>
      </trkpt>
      <trkpt lat="43.60436" lon="3.43626">
        <ele>101</ele>
        <time>2022-02-04T23:03:09Z</time>
      </trkpt>
      <trkpt lat="43.6047" lon="3.43586">
        <ele>103</ele>
        <time>2022-02-04T23:04:08Z</time>
      </trkpt>
    </trkseg>
  </trk>
</gpx>